createdAt,value
2022-07-29T00:01:55.061Z,95513.88
2022-07-29T00:04:24.780Z,95512.19
2022-07-29T00:07:04.993Z,95502.56
2022-07-29T00:09:50.670Z,95512.50
2022-07-29T00:12:26.278Z,95511.50
2022-07-29T00:14:58.314Z,95513.59
2022-07-29T00:17:28.205Z,95509.09
2022-07-29T00:19:57.757Z,95512.63
2022-07-29T00:22:27.222Z,95503.47
2022-07-29T00:24:58.296Z,95498.84
2022-07-29T00:27:27.882Z,95495.00
2022-07-29T00:29:57.456Z,95491.00
2022-07-29T00:32:27.030Z,95483.94
2022-07-29T00:35:14.256Z,95483.78
2022-07-29T00:37:43.891Z,95487.44
2022-07-29T00:40:15.092Z,95488.84
2022-07-29T00:42:45.719Z,95481.00
2022-07-29T00:45:17.917Z,95479.09
2022-07-29T00:47:47.591Z,95483.59
2022-07-29T00:50:17.242Z,95480.06
2022-07-29T00:52:47.010Z,95470.78
2022-07-29T00:55:19.129Z,95465.19
2022-07-29T00:57:49.160Z,95463.75
2022-07-29T01:00:23.440Z,95464.69
2022-07-29T01:02:53.643Z,95461.81
2022-07-29T01:05:50.638Z,95459.75
2022-07-29T01:08:19.776Z,95460.53
2022-07-29T01:10:51.417Z,95450.78
2022-07-29T01:13:21.462Z,95452.38
2022-07-29T01:16:09.462Z,95453.66
2022-07-29T01:18:47.159Z,95457.06
2022-07-29T01:21:45.501Z,95460.75
2022-07-29T01:24:37.981Z,95453.41
2022-07-29T01:27:34.652Z,95456.28
2022-07-29T01:30:07.916Z,95457.91
2022-07-29T01:32:41.562Z,95455.19
2022-07-29T01:35:19.407Z,95453.56
2022-07-29T01:37:58.007Z,95451.34
2022-07-29T01:40:37.843Z,95452.16
2022-07-29T01:43:16.933Z,95447.50
2022-07-29T01:45:55.286Z,95446.03
2022-07-29T01:48:34.054Z,95446.84
2022-07-29T01:51:17.126Z,95446.53
2022-07-29T01:53:57.366Z,95439.97
2022-07-29T01:56:30.693Z,95440.47
2022-07-29T01:59:01.382Z,95438.53
2022-07-29T02:01:33.723Z,95427.66
2022-07-29T02:04:07.602Z,95429.09
2022-07-29T02:06:39.712Z,95426.69
2022-07-29T02:09:09.827Z,95423.81
2022-07-29T02:11:40.282Z,95424.94
2022-07-29T02:14:13.334Z,95421.72
2022-07-29T02:16:46.325Z,95429.72
2022-07-29T02:19:17.429Z,95435.78
2022-07-29T02:21:46.953Z,95433.50
2022-07-29T02:24:18.935Z,95428.53
2022-07-29T02:26:50.069Z,95430.44
2022-07-29T02:29:21.460Z,95420.22
2022-07-29T02:31:53.039Z,95427.09
2022-07-29T02:34:23.463Z,95426.91
2022-07-29T02:36:53.680Z,95427.03
2022-07-29T02:39:23.890Z,95429.09
2022-07-29T02:41:57.790Z,95425.41
2022-07-29T02:44:31.361Z,95426.66
2022-07-29T02:47:13.503Z,95429.03
2022-07-29T02:49:52.185Z,95423.72
2022-07-29T02:52:26.676Z,95418.72
2022-07-29T02:54:59.327Z,95415.34
2022-07-29T02:57:36.272Z,95411.97
2022-07-29T03:00:26.234Z,95399.59
2022-07-29T03:03:00.551Z,95399.84
2022-07-29T03:05:30.155Z,95399.00
2022-07-29T03:08:02.957Z,95391.59
2022-07-29T03:10:32.741Z,95395.53
2022-07-29T03:13:02.361Z,95406.03
2022-07-29T03:15:31.786Z,95401.84
2022-07-29T03:18:03.041Z,95410.91
2022-07-29T03:20:32.439Z,95403.81
2022-07-29T03:23:01.888Z,95416.50
2022-07-29T03:25:31.122Z,95418.97
2022-07-29T03:28:01.137Z,95429.72
2022-07-29T03:30:31.663Z,95425.81
2022-07-29T03:33:02.990Z,95423.22
2022-07-29T03:35:43.640Z,95421.69
2022-07-29T03:38:13.222Z,95421.78
2022-07-29T03:40:52.028Z,95418.28
2022-07-29T03:43:22.811Z,95424.22
2022-07-29T03:45:56.440Z,95427.22
2022-07-29T03:48:30.242Z,95425.31
2022-07-29T03:50:59.570Z,95430.75
2022-07-29T03:53:28.880Z,95428.53
2022-07-29T03:56:04.414Z,95425.63
2022-07-29T03:58:35.085Z,95429.63
2022-07-29T04:01:05.032Z,95427.53
2022-07-29T04:03:36.687Z,95431.53
2022-07-29T04:06:09.127Z,95433.66
2022-07-29T04:08:38.719Z,95432.44
2022-07-29T04:11:08.544Z,95441.38
2022-07-29T04:13:38.379Z,95440.00
2022-07-29T04:16:11.401Z,95435.84
2022-07-29T04:18:42.163Z,95442.78
2022-07-29T04:21:11.852Z,95438.88
2022-07-29T04:23:53.154Z,95443.06
2022-07-29T04:26:23.899Z,95450.00
2022-07-29T04:28:53.403Z,95451.47
2022-07-29T04:31:25.852Z,95452.78
2022-07-29T04:33:57.031Z,95461.13
2022-07-29T04:36:29.303Z,95458.28
2022-07-29T04:39:29.650Z,95467.13
2022-07-29T04:42:00.245Z,95452.94
2022-07-29T04:44:30.947Z,95451.84
2022-07-29T04:47:10.766Z,95456.97
2022-07-29T04:49:42.434Z,95451.53
2022-07-29T04:52:11.946Z,95459.34
2022-07-29T04:54:41.541Z,95453.91
2022-07-29T04:57:11.042Z,95457.44
2022-07-29T04:59:40.535Z,95452.00
2022-07-29T05:02:10.013Z,95468.28
2022-07-29T05:04:40.910Z,95462.25
2022-07-29T05:07:10.607Z,95468.69
2022-07-29T05:09:40.173Z,95467.75
2022-07-29T05:12:10.738Z,95470.84
2022-07-29T05:14:40.333Z,95469.94
2022-07-29T05:17:09.993Z,95471.09
2022-07-29T05:19:39.749Z,95474.50
2022-07-29T05:22:10.517Z,95473.25
2022-07-29T05:24:39.745Z,95475.06
2022-07-29T05:27:09.011Z,95477.34
2022-07-29T05:29:44.438Z,95474.19
2022-07-29T05:32:14.960Z,95481.28
2022-07-29T05:34:50.306Z,95479.44
2022-07-29T05:37:22.998Z,95477.06
2022-07-29T05:39:56.749Z,95484.16
2022-07-29T05:42:26.640Z,95479.06
2022-07-29T05:44:55.912Z,95477.97
2022-07-29T05:47:26.042Z,95480.75
2022-07-29T05:49:55.332Z,95482.22
2022-07-29T05:52:26.198Z,95480.97
2022-07-29T05:54:55.413Z,95478.88
2022-07-29T05:57:26.363Z,95480.66
2022-07-29T05:59:55.549Z,95477.00
2022-07-29T06:02:27.378Z,95474.31
2022-07-29T06:04:56.620Z,95476.41
2022-07-29T06:07:27.281Z,95482.53
2022-07-29T06:09:56.495Z,95478.53
2022-07-29T06:12:25.699Z,95480.16
2022-07-29T06:14:54.903Z,95485.91
2022-07-29T06:17:24.074Z,95483.53
2022-07-29T06:19:53.487Z,95484.34
2022-07-29T06:22:22.685Z,95483.50
2022-07-29T06:24:53.441Z,95483.03
2022-07-29T06:27:22.894Z,95488.50
2022-07-29T06:29:52.175Z,95497.00
2022-07-29T06:32:22.885Z,95493.47
2022-07-29T06:35:11.853Z,95504.38
2022-07-29T06:37:45.921Z,95496.69
2022-07-29T06:40:37.518Z,95499.03
2022-07-29T06:43:07.050Z,95499.84
2022-07-29T06:45:36.901Z,95503.78
2022-07-29T06:48:07.175Z,95508.44
2022-07-29T06:50:36.365Z,95501.34
2022-07-29T06:53:06.238Z,95511.44
2022-07-29T06:55:37.898Z,95517.38
2022-07-29T06:58:07.971Z,95511.56
2022-07-29T07:00:37.448Z,95518.88
2022-07-29T07:03:06.648Z,95520.78
2022-07-29T07:05:36.165Z,95515.63
2022-07-29T07:08:06.413Z,95521.06
2022-07-29T07:10:37.171Z,95520.09
2022-07-29T07:13:07.256Z,95520.97
2022-07-29T07:15:40.142Z,95522.53
2022-07-29T07:18:10.030Z,95509.63
2022-07-29T07:20:39.678Z,95517.88
2022-07-29T07:23:09.220Z,95517.66
2022-07-29T07:25:39.860Z,95523.19
2022-07-29T07:28:09.105Z,95514.38
2022-07-29T07:30:38.409Z,95509.75
2022-07-29T07:33:08.026Z,95512.53
2022-07-29T07:35:38.066Z,95508.34
2022-07-29T07:40:37.265Z,95516.19
2022-07-29T07:43:08.126Z,95516.56
2022-07-29T07:45:38.262Z,95508.38
2022-07-29T07:48:07.943Z,95512.59
2022-07-29T07:50:37.185Z,95501.19
2022-07-29T07:53:06.476Z,95505.16
2022-07-29T07:56:07.703Z,95507.03
2022-07-29T07:58:26.378Z,95505.84
2022-07-29T08:00:55.728Z,95509.22
2022-07-29T08:03:25.112Z,95513.22
2022-07-29T08:05:55.267Z,95509.25
2022-07-29T08:08:24.716Z,95502.88
2022-07-29T08:10:54.026Z,95506.72
2022-07-29T08:13:28.160Z,95508.50
2022-07-29T08:16:01.496Z,95512.69
2022-07-29T08:18:32.312Z,95506.25
2022-07-29T08:21:01.495Z,95506.75
2022-07-29T08:23:47.803Z,95515.66
2022-07-29T08:26:18.856Z,95509.19
2022-07-29T08:28:51.196Z,95515.41
2022-07-29T08:31:22.600Z,95514.84
2022-07-29T08:33:51.912Z,95515.31
2022-07-29T08:36:22.253Z,95515.31
2022-07-29T08:38:51.954Z,95519.03
2022-07-29T08:41:22.144Z,95516.94
2022-07-29T08:43:53.936Z,95522.63
2022-07-29T08:46:24.235Z,95522.25
2022-07-29T08:48:53.688Z,95534.50
2022-07-29T08:51:23.706Z,95531.03
2022-07-29T08:53:52.985Z,95532.03
2022-07-29T08:56:23.302Z,95536.28
2022-07-29T08:58:53.983Z,95534.69
2022-07-29T09:01:35.618Z,95523.84
2022-07-29T09:04:08.465Z,95537.09
2022-07-29T09:06:42.724Z,95529.63
2022-07-29T09:09:12.857Z,95526.81
2022-07-29T09:12:09.213Z,95528.19
2022-07-29T09:14:39.847Z,95534.44
2022-07-29T09:17:10.072Z,95526.59
2022-07-29T09:19:44.793Z,95529.44
2022-07-29T09:22:31.094Z,95536.19
2022-07-29T09:25:01.347Z,95532.03
2022-07-29T09:27:31.073Z,95530.13
2022-07-29T09:30:05.110Z,95532.25
2022-07-29T09:32:35.730Z,95528.44
2022-07-29T09:35:22.602Z,95541.59
2022-07-29T09:37:52.265Z,95545.56
2022-07-29T09:40:23.587Z,95521.81
2022-07-29T09:42:56.525Z,95521.03
2022-07-29T09:45:32.090Z,95531.59
2022-07-29T09:48:04.243Z,95532.25
2022-07-29T09:50:41.264Z,95526.25
2022-07-29T09:53:11.386Z,95517.50
2022-07-29T09:55:51.852Z,95516.28
2022-07-29T09:58:23.727Z,95517.59
2022-07-29T10:00:55.848Z,95513.25
2022-07-29T10:03:25.761Z,95509.63
2022-07-29T10:06:10.042Z,95514.41
2022-07-29T10:08:39.928Z,95513.38
2022-07-29T10:11:14.689Z,95514.63
2022-07-29T10:13:46.278Z,95511.09
2022-07-29T10:16:18.860Z,95504.22
2022-07-29T10:18:48.698Z,95512.59
2022-07-29T10:21:22.468Z,95505.47
2022-07-29T10:24:06.708Z,95512.47
2022-07-29T10:26:44.631Z,95509.03
2022-07-29T10:29:14.076Z,95509.91
2022-07-29T10:31:57.072Z,95513.75
2022-07-29T10:34:38.571Z,95510.19
2022-07-29T10:37:19.382Z,95510.53
2022-07-29T10:39:59.363Z,95509.44
2022-07-29T10:42:34.152Z,95514.66
2022-07-29T10:45:06.329Z,95505.22
2022-07-29T10:47:37.300Z,95498.38
2022-07-29T10:50:12.726Z,95501.84
2022-07-29T10:53:00.793Z,95496.84
2022-07-29T10:55:35.885Z,95488.16
2022-07-29T10:58:20.512Z,95492.38
2022-07-29T11:00:52.468Z,95492.25
2022-07-29T11:03:50.596Z,95497.63
2022-07-29T11:06:26.871Z,95491.69
2022-07-29T11:09:20.130Z,95491.28
2022-07-29T11:11:51.537Z,95485.81
2022-07-29T11:15:01.119Z,95490.28
2022-07-29T11:17:37.555Z,95484.25
2022-07-29T11:20:42.435Z,95484.03
2022-07-29T11:23:24.460Z,95478.72
2022-07-29T11:26:21.141Z,95476.91
2022-07-29T11:29:03.245Z,95473.66
2022-07-29T11:31:42.337Z,95481.47
2022-07-29T11:34:27.997Z,95476.22
2022-07-29T11:37:33.184Z,95477.50
2022-07-29T11:40:20.226Z,95469.75
2022-07-29T11:42:52.637Z,95463.38
2022-07-29T11:45:42.916Z,95456.56
2022-07-29T11:48:29.821Z,95455.00
2022-07-29T11:51:12.158Z,95463.25
2022-07-29T11:53:49.097Z,95458.09
2022-07-29T11:56:25.694Z,95460.31
2022-07-29T11:59:06.224Z,95453.63
2022-07-29T12:01:38.118Z,95464.25
2022-07-29T12:04:08.001Z,95459.28
2022-07-29T12:06:37.476Z,95461.88
2022-07-29T12:09:14.411Z,95454.50
2022-07-29T12:11:45.053Z,95450.66
2022-07-29T12:14:30.084Z,95451.25
2022-07-29T12:17:00.738Z,95438.41
2022-07-29T12:19:30.119Z,95438.53
2022-07-29T12:22:02.314Z,95435.66
2022-07-29T12:24:46.917Z,95443.66
2022-07-29T12:27:28.566Z,95444.94
2022-07-29T12:29:59.003Z,95449.81
2022-07-29T12:32:34.944Z,95443.66
2022-07-29T12:35:06.530Z,95449.25
2022-07-29T12:37:41.018Z,95442.72
2022-07-29T12:40:15.829Z,95435.34
2022-07-29T12:43:11.228Z,95438.00
2022-07-29T12:45:40.909Z,95434.56
2022-07-29T12:48:12.017Z,95433.41
2022-07-29T12:51:00.602Z,95424.91
2022-07-29T12:53:31.765Z,95429.31
2022-07-29T12:56:07.980Z,95425.56
2022-07-29T12:58:42.514Z,95437.66
2022-07-29T13:01:17.055Z,95443.56
2022-07-29T13:03:56.868Z,95448.66
2022-07-29T13:06:36.367Z,95447.50
2022-07-29T13:09:10.507Z,95449.09
2022-07-29T13:11:48.157Z,95452.94
2022-07-29T13:14:34.077Z,95454.25
2022-07-29T13:17:08.718Z,95447.81
2022-07-29T13:19:42.891Z,95458.31
2022-07-29T13:22:14.313Z,95453.34
2022-07-29T13:24:52.309Z,95454.06
2022-07-29T13:27:26.138Z,95462.19
2022-07-29T13:29:57.568Z,95454.19
2022-07-29T13:32:35.525Z,95448.97
2022-07-29T13:35:08.626Z,95448.44
2022-07-29T13:37:40.233Z,95442.06
2022-07-29T13:40:12.437Z,95439.25
2022-07-29T13:42:43.655Z,95448.94
2022-07-29T13:45:13.717Z,95446.44
2022-07-29T13:47:49.200Z,95438.38
2022-07-29T13:50:19.842Z,95435.50
2022-07-29T13:52:51.562Z,95437.72
2022-07-29T13:55:23.710Z,95436.81
2022-07-29T13:57:56.263Z,95426.09
2022-07-29T14:00:27.184Z,95427.16
2022-07-29T14:02:58.406Z,95429.38
2022-07-29T14:05:28.074Z,95432.56
2022-07-29T14:07:57.376Z,95435.75
2022-07-29T14:10:28.731Z,95432.56
2022-07-29T14:12:59.440Z,95439.13
2022-07-29T14:15:28.681Z,95439.47
2022-07-29T14:17:58.089Z,95435.41
2022-07-29T14:20:27.444Z,95429.81
2022-07-29T14:22:57.225Z,95415.88
2022-07-29T14:25:26.641Z,95415.53
2022-07-29T14:27:55.977Z,95425.47
2022-07-29T14:30:29.216Z,95420.50
2022-07-29T14:32:58.409Z,95429.91
2022-07-29T14:35:27.789Z,95434.16
2022-07-29T14:37:57.072Z,95437.34
2022-07-29T14:40:26.612Z,95441.03
2022-07-29T14:42:55.841Z,95445.75
2022-07-29T14:45:25.170Z,95442.59
2022-07-29T14:47:57.294Z,95437.44
2022-07-29T14:50:31.360Z,95447.00
2022-07-29T14:53:01.694Z,95447.72
2022-07-29T14:55:30.940Z,95450.28
2022-07-29T14:58:08.730Z,95449.56
2022-07-29T15:00:40.508Z,95459.66
2022-07-29T15:03:11.556Z,95457.97
2022-07-29T15:05:41.080Z,95453.13
2022-07-29T15:08:10.298Z,95464.66
2022-07-29T15:10:39.476Z,95464.56
2022-07-29T15:13:08.973Z,95462.03
2022-07-29T15:15:38.257Z,95464.34
2022-07-29T15:18:08.116Z,95462.38
2022-07-29T15:20:39.104Z,95448.09
2022-07-29T15:23:10.385Z,95457.38
2022-07-29T15:25:42.760Z,95445.75
2022-07-29T15:28:12.208Z,95443.06
2022-07-29T15:30:42.801Z,95434.53
2022-07-29T15:33:12.212Z,95439.91
2022-07-29T15:35:42.869Z,95436.56
2022-07-29T15:38:12.172Z,95432.28
2022-07-29T15:40:42.139Z,95426.94
2022-07-29T15:43:11.594Z,95427.78
2022-07-29T15:45:42.529Z,95435.19
2022-07-29T15:48:14.757Z,95425.69
2022-07-29T15:50:46.958Z,95428.94
2022-07-29T15:53:16.599Z,95439.09
2022-07-29T15:55:46.936Z,95431.78
2022-07-29T15:58:16.265Z,95446.78
2022-07-29T16:00:45.644Z,95448.69
2022-07-29T16:03:14.952Z,95448.00
2022-07-29T16:05:46.020Z,95447.84
2022-07-29T16:08:15.295Z,95445.69
2022-07-29T16:10:44.597Z,95450.91
2022-07-29T16:13:17.933Z,95454.16
2022-07-29T16:16:02.255Z,95459.75
2022-07-29T16:18:32.283Z,95462.97
2022-07-29T16:21:02.985Z,95457.31
2022-07-29T16:23:32.337Z,95458.19
2022-07-29T16:26:01.801Z,95465.88
2022-07-29T16:28:31.579Z,95463.56
2022-07-29T16:31:01.504Z,95469.41
2022-07-29T16:33:53.620Z,95483.28
2022-07-29T16:36:22.169Z,95485.50
2022-07-29T16:38:51.817Z,95483.06
2022-07-29T16:41:21.170Z,95490.03
2022-07-29T16:43:50.415Z,95489.38
2022-07-29T16:46:20.773Z,95498.53
2022-07-29T16:48:50.273Z,95504.75
2022-07-29T16:51:20.894Z,95507.16
2022-07-29T16:53:50.494Z,95513.00
2022-07-29T16:56:19.895Z,95521.44
2022-07-29T16:58:49.195Z,95532.66
2022-07-29T17:01:19.862Z,95550.53
2022-07-29T17:04:07.711Z,95551.97
2022-07-29T17:06:40.758Z,95582.13
2022-07-29T17:09:14.961Z,95607.28
2022-07-29T17:11:51.642Z,95614.75
2022-07-29T17:14:25.804Z,95631.22
2022-07-29T17:17:00.514Z,95634.13
2022-07-29T17:19:32.859Z,95625.19
2022-07-29T17:22:20.237Z,95623.03
2022-07-29T17:24:49.915Z,95610.13
2022-07-29T17:27:19.673Z,95610.91
2022-07-29T17:29:49.165Z,95604.72
2022-07-29T17:32:18.808Z,95613.81
2022-07-29T17:34:48.054Z,95624.38
2022-07-29T17:37:18.613Z,95621.91
2022-07-29T17:39:48.270Z,95618.81
2022-07-29T17:42:17.531Z,95607.91
2022-07-29T17:44:46.943Z,95616.16
2022-07-29T17:47:16.935Z,95620.50
2022-07-29T17:49:47.232Z,95619.13
2022-07-29T17:52:18.370Z,95617.63
2022-07-29T17:54:49.195Z,95611.53
2022-07-29T17:57:18.491Z,95617.59
2022-07-29T17:59:47.806Z,95624.94
2022-07-29T18:02:21.652Z,95626.28
2022-07-29T18:04:51.003Z,95624.19
2022-07-29T18:07:21.605Z,95617.84
2022-07-29T18:09:50.945Z,95624.50
2022-07-29T18:12:20.195Z,95620.97
2022-07-29T18:14:49.602Z,95625.22
2022-07-29T18:17:19.104Z,95626.31
2022-07-29T18:19:48.757Z,95631.56
2022-07-29T18:22:18.057Z,95637.00
2022-07-29T18:24:48.950Z,95637.31
2022-07-29T18:27:18.406Z,95639.50
2022-07-29T18:29:51.170Z,95646.88
2022-07-29T18:32:28.810Z,95647.16
2022-07-29T18:35:02.475Z,95654.50
2022-07-29T18:38:01.728Z,95647.00
2022-07-29T18:40:23.900Z,95653.03
2022-07-29T18:42:53.520Z,95666.09
2022-07-29T18:45:22.987Z,95656.84
2022-07-29T18:47:58.354Z,95658.66
2022-07-29T18:50:29.551Z,95666.31
2022-07-29T18:53:01.188Z,95668.31
2022-07-29T18:55:32.135Z,95662.19
2022-07-29T18:58:01.798Z,95668.75
2022-07-29T19:00:31.504Z,95666.81
2022-07-29T19:03:03.178Z,95673.75
2022-07-29T19:05:33.364Z,95671.34
2022-07-29T19:08:02.859Z,95669.63
2022-07-29T19:10:33.868Z,95673.47
2022-07-29T19:13:03.376Z,95673.47
2022-07-29T19:15:32.877Z,95676.38
2022-07-29T19:18:02.366Z,95679.09
2022-07-29T19:20:31.923Z,95680.50
2022-07-29T19:23:01.451Z,95674.56
2022-07-29T19:25:31.233Z,95672.06
2022-07-29T19:28:06.843Z,95677.19
2022-07-29T19:30:36.521Z,95674.78
2022-07-29T19:33:05.898Z,95682.91
2022-07-29T19:35:35.187Z,95688.22
2022-07-29T19:38:04.732Z,95683.31
2022-07-29T19:40:34.023Z,95693.06
2022-07-29T19:43:03.593Z,95694.66
2022-07-29T19:45:54.132Z,95694.38
2022-07-29T19:48:23.388Z,95697.59
2022-07-29T19:50:53.056Z,95696.56
2022-07-29T19:53:22.257Z,95692.34
2022-07-29T19:55:52.007Z,95693.16
2022-07-29T19:58:22.475Z,95695.06
2022-07-29T20:00:52.069Z,95695.28
2022-07-29T20:03:23.017Z,95698.31
2022-07-29T20:05:52.896Z,95697.19
2022-07-29T20:08:22.416Z,95693.47
2022-07-29T20:10:51.749Z,95696.19
2022-07-29T20:13:20.960Z,95695.59
2022-07-29T20:15:50.320Z,95697.50
2022-07-29T20:18:19.925Z,95693.66
2022-07-29T20:20:50.657Z,95702.63
2022-07-29T20:23:22.163Z,95692.47
2022-07-29T20:25:51.789Z,95692.25
2022-07-29T20:28:21.342Z,95698.50
2022-07-29T20:30:51.085Z,95693.88
2022-07-29T20:33:20.732Z,95700.13
2022-07-29T20:35:51.700Z,95693.06
2022-07-29T20:38:21.352Z,95687.63
2022-07-29T20:40:53.246Z,95693.97
2022-07-29T20:43:22.842Z,95693.06
2022-07-29T20:45:52.588Z,95692.97
2022-07-29T20:48:22.844Z,95691.06
2022-07-29T20:50:54.940Z,95697.59
2022-07-29T20:53:24.611Z,95689.44
2022-07-29T20:55:54.932Z,95687.84
2022-07-29T20:58:24.525Z,95680.59
2022-07-29T21:00:54.292Z,95684.41
2022-07-29T21:03:23.881Z,95685.53
2022-07-29T21:05:54.747Z,95682.81
2022-07-29T21:08:24.467Z,95685.81
2022-07-29T21:10:54.177Z,95674.16
2022-07-29T21:13:25.442Z,95686.63
2022-07-29T21:15:59.061Z,95681.50
2022-07-29T21:18:30.593Z,95680.00
2022-07-29T21:21:05.748Z,95684.41
2022-07-29T21:23:35.921Z,95678.97
2022-07-29T21:26:07.766Z,95693.66
2022-07-29T21:28:40.075Z,95689.25
2022-07-29T21:31:12.469Z,95695.59
2022-07-29T21:33:44.859Z,95700.50
2022-07-29T21:36:46.785Z,95695.78
2022-07-29T21:39:07.034Z,95694.69
2022-07-29T21:41:36.571Z,95692.34
2022-07-29T21:44:06.178Z,95703.72
2022-07-29T21:46:36.454Z,95698.00
2022-07-29T21:49:06.117Z,95704.03
2022-07-29T21:51:36.871Z,95706.25
2022-07-29T21:54:06.609Z,95706.25
2022-07-29T21:56:38.057Z,95703.91
2022-07-29T21:59:09.614Z,95695.78
2022-07-29T22:01:40.117Z,95701.19
2022-07-29T22:04:09.751Z,95711.56
2022-07-29T22:06:40.733Z,95711.38
2022-07-29T22:09:10.352Z,95711.38
2022-07-29T22:11:39.920Z,95712.97
2022-07-29T22:14:09.502Z,95708.97
2022-07-29T22:16:39.115Z,95707.88
2022-07-29T22:19:08.985Z,95709.78
2022-07-29T22:21:40.204Z,95703.72
2022-07-29T22:24:11.194Z,95705.63
2022-07-29T22:26:41.586Z,95701.31
2022-07-29T22:29:11.614Z,95706.94
2022-07-29T22:31:41.157Z,95707.53
2022-07-29T22:34:13.150Z,95709.47
2022-07-29T22:36:44.018Z,95702.44
2022-07-29T22:39:15.685Z,95712.19
2022-07-29T22:41:45.761Z,95712.38
2022-07-29T22:44:15.355Z,95700.69
2022-07-29T22:46:44.961Z,95694.59
2022-07-29T22:49:14.561Z,95708.97
2022-07-29T22:51:45.426Z,95691.88
2022-07-29T22:54:15.045Z,95695.25
2022-07-29T22:56:44.616Z,95690.63
2022-07-29T22:59:14.112Z,95688.13
2022-07-29T23:01:43.979Z,95678.97
2022-07-29T23:04:13.890Z,95673.84
2022-07-29T23:06:44.805Z,95670.81
2022-07-29T23:09:14.339Z,95665.31
2022-07-29T23:11:44.057Z,95661.28
2022-07-29T23:14:13.706Z,95660.47
2022-07-29T23:16:43.320Z,95655.63
2022-07-29T23:19:13.069Z,95657.56
2022-07-29T23:21:44.093Z,95655.63
2022-07-29T23:24:13.678Z,95646.69
2022-07-29T23:26:43.368Z,95644.47
2022-07-29T23:29:13.183Z,95652.53
2022-07-29T23:31:44.284Z,95649.81
2022-07-29T23:34:17.790Z,95644.38
2022-07-29T23:36:48.674Z,95647.59
2022-07-29T23:39:18.403Z,95637.25
2022-07-29T23:41:47.960Z,95644.59
2022-07-29T23:44:17.456Z,95637.53
2022-07-29T23:46:47.048Z,95635.13
2022-07-29T23:49:16.849Z,95644.28
2022-07-29T23:51:47.806Z,95646.19
2022-07-29T23:54:17.287Z,95630.41
2022-07-29T23:56:46.900Z,95627.47
2022-07-29T23:59:16.522Z,95626.19
